sensor_id;sensor_type;location;lat;lon;timestamp;temperature;humidity
52073;DHT22;38074;51.232;6.826;2022-11-13T00:02:57;24.00;44.30
52073;DHT22;38074;51.232;6.826;2022-11-13T00:10:13;23.90;44.20
52073;DHT22;38074;51.232;6.826;2022-11-13T00:17:28;23.90;44.30
52073;DHT22;38074;51.232;6.826;2022-11-13T00:24:44;23.90;44.30
52073;DHT22;38074;51.232;6.826;2022-11-13T00:31:59;23.90;44.30
52073;DHT22;38074;51.232;6.826;2022-11-13T00:39:15;23.90;44.30
52073;DHT22;38074;51.232;6.826;2022-11-13T00:46:30;24.00;44.40
52073;DHT22;38074;51.232;6.826;2022-11-13T00:53:46;23.90;44.40
52073;DHT22;38074;51.232;6.826;2022-11-13T01:01:04;23.90;44.40
52073;DHT22;38074;51.232;6.826;2022-11-13T01:08:20;23.90;44.40
52073;DHT22;38074;51.232;6.826;2022-11-13T01:15:40;23.90;44.50
52073;DHT22;38074;51.232;6.826;2022-11-13T01:22:56;23.90;44.40
52073;DHT22;38074;51.232;6.826;2022-11-13T01:30:11;23.90;44.50
52073;DHT22;38074;51.232;6.826;2022-11-13T01:37:27;23.90;44.40
52073;DHT22;38074;51.232;6.826;2022-11-13T01:44:48;23.90;44.40
52073;DHT22;38074;51.232;6.826;2022-11-13T01:52:09;23.90;44.40
52073;DHT22;38074;51.232;6.826;2022-11-13T01:59:28;23.90;44.40
52073;DHT22;38074;51.232;6.826;2022-11-13T02:06:50;23.90;44.50
52073;DHT22;38074;51.232;6.826;2022-11-13T02:14:08;23.90;44.40
52073;DHT22;38074;51.232;6.826;2022-11-13T02:21:50;23.90;44.40
52073;DHT22;38074;51.232;6.826;2022-11-13T02:29:09;23.90;44.40
52073;DHT22;38074;51.232;6.826;2022-11-13T02:36:25;23.90;44.40
52073;DHT22;38074;51.232;6.826;2022-11-13T02:43:40;23.90;44.40
52073;DHT22;38074;51.232;6.826;2022-11-13T02:50:56;23.90;44.40
52073;DHT22;38074;51.232;6.826;2022-11-13T02:58:11;23.90;44.40
52073;DHT22;38074;51.232;6.826;2022-11-13T03:05:27;23.90;44.40
52073;DHT22;38074;51.232;6.826;2022-11-13T03:12:43;23.90;44.40
52073;DHT22;38074;51.232;6.826;2022-11-13T03:19:58;23.90;44.30
52073;DHT22;38074;51.232;6.826;2022-11-13T03:27:14;23.80;44.30
52073;DHT22;38074;51.232;6.826;2022-11-13T03:34:29;23.90;44.30
52073;DHT22;38074;51.232;6.826;2022-11-13T03:41:45;23.90;44.30
52073;DHT22;38074;51.232;6.826;2022-11-13T03:49:00;23.80;44.30
52073;DHT22;38074;51.232;6.826;2022-11-13T03:56:16;23.80;44.20
52073;DHT22;38074;51.232;6.826;2022-11-13T04:03:31;23.80;44.80
52073;DHT22;38074;51.232;6.826;2022-11-13T04:10:47;23.80;44.10
52073;DHT22;38074;51.232;6.826;2022-11-13T04:18:02;23.80;44.10
52073;DHT22;38074;51.232;6.826;2022-11-13T04:25:18;23.80;44.10
52073;DHT22;38074;51.232;6.826;2022-11-13T04:32:34;23.80;44.00
52073;DHT22;38074;51.232;6.826;2022-11-13T04:39:49;23.80;44.00
52073;DHT22;38074;51.232;6.826;2022-11-13T04:47:05;23.80;44.00
52073;DHT22;38074;51.232;6.826;2022-11-13T04:54:20;23.80;44.00
52073;DHT22;38074;51.232;6.826;2022-11-13T05:01:36;23.80;43.90
52073;DHT22;38074;51.232;6.826;2022-11-13T05:08:51;23.80;43.90
52073;DHT22;38074;51.232;6.826;2022-11-13T05:16:10;23.80;43.80
52073;DHT22;38074;51.232;6.826;2022-11-13T05:23:26;23.80;43.80
52073;DHT22;38074;51.232;6.826;2022-11-13T05:30:41;23.80;43.70
52073;DHT22;38074;51.232;6.826;2022-11-13T05:38:00;23.80;43.70
52073;DHT22;38074;51.232;6.826;2022-11-13T05:45:16;23.80;43.60
52073;DHT22;38074;51.232;6.826;2022-11-13T05:52:32;23.80;43.60
52073;DHT22;38074;51.232;6.826;2022-11-13T05:59:47;23.80;43.60
52073;DHT22;38074;51.232;6.826;2022-11-13T06:07:02;23.80;43.50
52073;DHT22;38074;51.232;6.826;2022-11-13T06:14:18;23.80;43.50
52073;DHT22;38074;51.232;6.826;2022-11-13T06:21:37;23.80;43.40
52073;DHT22;38074;51.232;6.826;2022-11-13T06:28:53;23.70;43.30
52073;DHT22;38074;51.232;6.826;2022-11-13T06:36:15;23.70;43.30
52073;DHT22;38074;51.232;6.826;2022-11-13T06:43:31;23.70;43.10
52073;DHT22;38074;51.232;6.826;2022-11-13T06:50:46;23.70;43.10
52073;DHT22;38074;51.232;6.826;2022-11-13T06:58:02;23.80;43.20
52073;DHT22;38074;51.232;6.826;2022-11-13T07:05:17;23.70;43.10
52073;DHT22;38074;51.232;6.826;2022-11-13T07:12:33;23.70;43.00
52073;DHT22;38074;51.232;6.826;2022-11-13T07:19:49;23.70;43.00
52073;DHT22;38074;51.232;6.826;2022-11-13T07:27:04;23.70;43.00
52073;DHT22;38074;51.232;6.826;2022-11-13T07:34:20;23.80;43.00
52073;DHT22;38074;51.232;6.826;2022-11-13T07:41:35;23.80;43.00
52073;DHT22;38074;51.232;6.826;2022-11-13T07:48:51;23.80;43.00
52073;DHT22;38074;51.232;6.826;2022-11-13T07:56:07;23.80;43.00
52073;DHT22;38074;51.232;6.826;2022-11-13T08:03:22;23.90;43.00
52073;DHT22;38074;51.232;6.826;2022-11-13T08:10:38;24.00;43.10
52073;DHT22;38074;51.232;6.826;2022-11-13T08:17:58;24.00;43.10
52073;DHT22;38074;51.232;6.826;2022-11-13T08:25:13;24.10;43.10
52073;DHT22;38074;51.232;6.826;2022-11-13T08:32:29;24.00;43.10
52073;DHT22;38074;51.232;6.826;2022-11-13T08:39:44;24.10;43.10
52073;DHT22;38074;51.232;6.826;2022-11-13T08:47:00;24.10;43.10
52073;DHT22;38074;51.232;6.826;2022-11-13T08:54:15;24.00;43.00
52073;DHT22;38074;51.232;6.826;2022-11-13T09:01:32;24.10;43.20
52073;DHT22;38074;51.232;6.826;2022-11-13T09:08:47;24.10;43.20
52073;DHT22;38074;51.232;6.826;2022-11-13T09:16:03;24.10;43.30
52073;DHT22;38074;51.232;6.826;2022-11-13T09:23:19;24.10;43.40
52073;DHT22;38074;51.232;6.826;2022-11-13T09:30:37;24.10;43.50
52073;DHT22;38074;51.232;6.826;2022-11-13T09:37:52;24.20;43.70
52073;DHT22;38074;51.232;6.826;2022-11-13T09:45:12;24.20;43.80
52073;DHT22;38074;51.232;6.826;2022-11-13T09:52:37;24.20;44.00
52073;DHT22;38074;51.232;6.826;2022-11-13T10:00:00;24.20;44.10
52073;DHT22;38074;51.232;6.826;2022-11-13T10:07:34;24.40;45.40
52073;DHT22;38074;51.232;6.826;2022-11-13T10:14:52;24.50;45.10
52073;DHT22;38074;51.232;6.826;2022-11-13T10:22:25;24.50;45.00
52073;DHT22;38074;51.232;6.826;2022-11-13T10:29:43;24.50;45.00
52073;DHT22;38074;51.232;6.826;2022-11-13T10:44:52;24.50;44.80
52073;DHT22;38074;51.232;6.826;2022-11-13T10:52:20;24.40;44.10
52073;DHT22;38074;51.232;6.826;2022-11-13T10:59:41;24.30;43.50
52073;DHT22;38074;51.232;6.826;2022-11-13T11:07:10;24.20;43.10
52073;DHT22;38074;51.232;6.826;2022-11-13T11:14:36;24.20;42.80
52073;DHT22;38074;51.232;6.826;2022-11-13T11:22:10;24.10;42.60
52073;DHT22;38074;51.232;6.826;2022-11-13T11:29:47;24.10;42.10
52073;DHT22;38074;51.232;6.826;2022-11-13T11:37:16;24.10;41.70
52073;DHT22;38074;51.232;6.826;2022-11-13T11:45:20;24.10;41.70
52073;DHT22;38074;51.232;6.826;2022-11-13T11:52:50;24.10;41.80
52073;DHT22;38074;51.232;6.826;2022-11-13T12:00:16;24.10;41.70
52073;DHT22;38074;51.232;6.826;2022-11-13T12:30:37;24.10;41.50
52073;DHT22;38074;51.232;6.826;2022-11-13T12:45:45;24.10;41.60
52073;DHT22;38074;51.232;6.826;2022-11-13T12:53:10;24.20;41.60
52073;DHT22;38074;51.232;6.826;2022-11-13T13:00:28;24.20;41.60
52073;DHT22;38074;51.232;6.826;2022-11-13T13:15:37;24.20;41.50
52073;DHT22;38074;51.232;6.826;2022-11-13T13:22:57;24.20;41.60
52073;DHT22;38074;51.232;6.826;2022-11-13T13:30:16;24.20;41.60
52073;DHT22;38074;51.232;6.826;2022-11-13T13:37:38;24.20;41.60
52073;DHT22;38074;51.232;6.826;2022-11-13T13:44:58;24.20;41.60
52073;DHT22;38074;51.232;6.826;2022-11-13T13:52:22;24.20;41.60
52073;DHT22;38074;51.232;6.826;2022-11-13T13:59:40;24.20;41.70
52073;DHT22;38074;51.232;6.826;2022-11-13T14:07:00;24.20;41.70
52073;DHT22;38074;51.232;6.826;2022-11-13T14:14:21;24.20;41.70
52073;DHT22;38074;51.232;6.826;2022-11-13T14:21:36;24.20;41.80
52073;DHT22;38074;51.232;6.826;2022-11-13T14:28:57;24.20;41.80
52073;DHT22;38074;51.232;6.826;2022-11-13T14:36:15;24.20;41.90
52073;DHT22;38074;51.232;6.826;2022-11-13T14:43:47;24.20;41.90
52073;DHT22;38074;51.232;6.826;2022-11-13T14:51:17;24.20;41.90
52073;DHT22;38074;51.232;6.826;2022-11-13T14:58:41;24.20;42.00
52073;DHT22;38074;51.232;6.826;2022-11-13T15:05:58;24.10;42.00
52073;DHT22;38074;51.232;6.826;2022-11-13T15:13:16;24.10;42.00
52073;DHT22;38074;51.232;6.826;2022-11-13T15:20:32;24.10;42.70
52073;DHT22;38074;51.232;6.826;2022-11-13T15:27:48;24.10;42.10
52073;DHT22;38074;51.232;6.826;2022-11-13T15:35:05;24.10;42.10
52073;DHT22;38074;51.232;6.826;2022-11-13T15:42:30;24.10;42.70
52073;DHT22;38074;51.232;6.826;2022-11-13T15:49:46;24.10;42.10
52073;DHT22;38074;51.232;6.826;2022-11-13T15:57:02;24.10;42.20
52073;DHT22;38074;51.232;6.826;2022-11-13T16:04:18;24.10;42.20
52073;DHT22;38074;51.232;6.826;2022-11-13T16:11:33;24.10;42.20
52073;DHT22;38074;51.232;6.826;2022-11-13T16:18:50;24.10;42.20
52073;DHT22;38074;51.232;6.826;2022-11-13T16:26:17;24.10;42.20
52073;DHT22;38074;51.232;6.826;2022-11-13T16:33:33;24.10;42.20
52073;DHT22;38074;51.232;6.826;2022-11-13T16:40:48;24.10;42.30
52073;DHT22;38074;51.232;6.826;2022-11-13T16:48:07;24.10;42.20
52073;DHT22;38074;51.232;6.826;2022-11-13T16:55:26;24.10;42.30
52073;DHT22;38074;51.232;6.826;2022-11-13T17:02:42;24.10;42.30
52073;DHT22;38074;51.232;6.826;2022-11-13T17:09:57;24.10;42.30
52073;DHT22;38074;51.232;6.826;2022-11-13T17:17:13;24.10;42.40
52073;DHT22;38074;51.232;6.826;2022-11-13T17:24:29;24.10;42.40
52073;DHT22;38074;51.232;6.826;2022-11-13T17:31:44;24.10;42.40
52073;DHT22;38074;51.232;6.826;2022-11-13T17:39:00;24.10;42.40
52073;DHT22;38074;51.232;6.826;2022-11-13T17:46:16;24.10;42.50
52073;DHT22;38074;51.232;6.826;2022-11-13T17:53:32;24.10;42.50
52073;DHT22;38074;51.232;6.826;2022-11-13T18:00:48;24.10;42.60
52073;DHT22;38074;51.232;6.826;2022-11-13T18:08:04;24.10;42.60
52073;DHT22;38074;51.232;6.826;2022-11-13T18:15:20;24.10;42.70
52073;DHT22;38074;51.232;6.826;2022-11-13T18:22:35;24.10;42.80
52073;DHT22;38074;51.232;6.826;2022-11-13T18:29:51;24.10;42.90
52073;DHT22;38074;51.232;6.826;2022-11-13T18:37:06;24.10;42.90
52073;DHT22;38074;51.232;6.826;2022-11-13T18:44:22;24.10;43.00
52073;DHT22;38074;51.232;6.826;2022-11-13T18:51:38;24.10;42.90
52073;DHT22;38074;51.232;6.826;2022-11-13T18:58:54;24.10;42.80
52073;DHT22;38074;51.232;6.826;2022-11-13T19:06:13;24.00;42.80
52073;DHT22;38074;51.232;6.826;2022-11-13T19:13:28;24.10;42.80
52073;DHT22;38074;51.232;6.826;2022-11-13T19:20:44;24.10;42.90
52073;DHT22;38074;51.232;6.826;2022-11-13T19:28:00;24.10;42.90
52073;DHT22;38074;51.232;6.826;2022-11-13T19:35:16;24.10;42.80
52073;DHT22;38074;51.232;6.826;2022-11-13T19:42:31;24.10;42.70
52073;DHT22;38074;51.232;6.826;2022-11-13T19:49:47;24.10;42.70
52073;DHT22;38074;51.232;6.826;2022-11-13T19:57:02;24.00;42.60
52073;DHT22;38074;51.232;6.826;2022-11-13T20:04:18;24.00;42.60
52073;DHT22;38074;51.232;6.826;2022-11-13T20:11:33;24.00;42.60
52073;DHT22;38074;51.232;6.826;2022-11-13T20:18:49;24.00;42.60
52073;DHT22;38074;51.232;6.826;2022-11-13T20:26:07;24.00;42.60
52073;DHT22;38074;51.232;6.826;2022-11-13T20:33:24;24.00;42.60
52073;DHT22;38074;51.232;6.826;2022-11-13T20:40:39;24.10;42.60
52073;DHT22;38074;51.232;6.826;2022-11-13T20:47:55;24.10;42.90
52073;DHT22;38074;51.232;6.826;2022-11-13T20:55:10;24.20;42.80
52073;DHT22;38074;51.232;6.826;2022-11-13T21:02:26;24.20;42.80
52073;DHT22;38074;51.232;6.826;2022-11-13T21:09:41;24.20;42.70
52073;DHT22;38074;51.232;6.826;2022-11-13T21:16:57;24.10;43.00
52073;DHT22;38074;51.232;6.826;2022-11-13T21:24:12;24.10;42.70
52073;DHT22;38074;51.232;6.826;2022-11-13T21:31:28;24.10;42.70
52073;DHT22;38074;51.232;6.826;2022-11-13T21:38:44;24.10;42.70
52073;DHT22;38074;51.232;6.826;2022-11-13T21:46:04;24.00;42.60
52073;DHT22;38074;51.232;6.826;2022-11-13T21:53:19;24.00;42.60
52073;DHT22;38074;51.232;6.826;2022-11-13T22:00:36;24.00;42.60
52073;DHT22;38074;51.232;6.826;2022-11-13T22:07:51;24.00;42.60
52073;DHT22;38074;51.232;6.826;2022-11-13T22:15:08;24.00;42.50
52073;DHT22;38074;51.232;6.826;2022-11-13T22:22:24;24.00;42.50
52073;DHT22;38074;51.232;6.826;2022-11-13T22:29:40;24.00;42.60
52073;DHT22;38074;51.232;6.826;2022-11-13T22:36:55;23.90;42.40
52073;DHT22;38074;51.232;6.826;2022-11-13T22:44:12;24.00;42.40
52073;DHT22;38074;51.232;6.826;2022-11-13T22:51:34;23.90;42.30
52073;DHT22;38074;51.232;6.826;2022-11-13T22:58:51;23.90;42.30
52073;DHT22;38074;51.232;6.826;2022-11-13T23:06:08;23.90;42.30
52073;DHT22;38074;51.232;6.826;2022-11-13T23:13:24;23.90;42.30
52073;DHT22;38074;51.232;6.826;2022-11-13T23:20:41;23.90;42.20
52073;DHT22;38074;51.232;6.826;2022-11-13T23:27:56;23.90;42.20
52073;DHT22;38074;51.232;6.826;2022-11-13T23:35:12;23.90;42.20
52073;DHT22;38074;51.232;6.826;2022-11-13T23:42:28;23.90;42.10
52073;DHT22;38074;51.232;6.826;2022-11-13T23:49:43;23.90;42.10
52073;DHT22;38074;51.232;6.826;2022-11-13T23:56:59;23.80;42.00
